createdAt,value
2022-10-05T03:35:55.941Z,98356.25
2022-10-05T03:41:01.947Z,98356.25
2022-10-05T03:46:07.360Z,98372.57
2022-10-05T03:51:12.745Z,98372.57
2022-10-05T03:56:18.948Z,98381.65
2022-10-05T04:01:23.303Z,98381.65
2022-10-05T04:06:27.126Z,98378.91
2022-10-05T04:11:31.473Z,98371.48
2022-10-05T04:16:35.296Z,98371.48
2022-10-05T04:21:40.951Z,98364.28
2022-10-05T04:26:49.431Z,98364.28
2022-10-05T04:31:58.606Z,98348.88
2022-10-05T04:37:03.152Z,98348.88
2022-10-05T04:42:10.211Z,98340.55
2022-10-05T04:52:23.695Z,98347.62
2022-10-05T04:57:29.191Z,98347.62
2022-10-05T05:07:41.579Z,98349.91
2022-10-05T05:33:17.767Z,98374.03
2022-10-05T05:38:25.018Z,98384.38
2022-10-05T05:43:30.390Z,98384.38
2022-10-05T05:48:36.725Z,98398.74
2022-10-05T05:53:40.550Z,98398.74
2022-10-05T05:58:46.344Z,98417.05
2022-10-05T06:03:51.542Z,98417.05
2022-10-05T06:08:54.173Z,98448.78
2022-10-05T06:13:57.862Z,98448.78
2022-10-05T06:19:02.443Z,98438.05
2022-10-05T06:29:13.466Z,98459.71
2022-10-05T06:39:30.188Z,98458.89
2022-10-05T06:44:37.163Z,98479.45
2022-10-05T06:59:57.625Z,98476.77
2022-10-05T07:20:28.910Z,98494.53
2022-10-05T07:25:35.018Z,98494.53
2022-10-05T07:30:41.129Z,98478.53
2022-10-05T07:35:48.180Z,98478.53
2022-10-05T07:40:52.508Z,98469.77
2022-10-05T07:45:58.369Z,98469.77
2022-10-05T07:51:06.297Z,98479.91
2022-10-05T08:01:16.204Z,98485.33
2022-10-05T08:11:29.673Z,98467.45
2022-10-05T08:16:34.819Z,98467.45
2022-10-05T08:21:39.702Z,98453.72
2022-10-05T08:31:51.212Z,98460.03
2022-10-05T08:36:58.347Z,98463.91
2022-10-05T08:47:18.066Z,98464.06
2022-10-05T08:52:23.804Z,98464.06
2022-10-05T09:13:01.254Z,98493.74
2022-10-05T09:28:23.567Z,98475.03
2022-10-05T10:04:19.511Z,98482.17
2022-10-05T10:09:27.982Z,98482.17
2022-10-05T10:25:01.637Z,98472.52
2022-10-05T10:35:22.004Z,98479.95
2022-10-05T10:40:29.794Z,98472.65
2022-10-05T10:45:37.269Z,98472.65
2022-10-05T10:50:53.665Z,98480.41
2022-10-05T11:06:17.613Z,98476.06
2022-10-05T11:11:23.682Z,98487.52
2022-10-05T11:21:38.257Z,98476
2022-10-05T11:47:16.614Z,98440.63
2022-10-05T11:52:22.497Z,98440.63
2022-10-05T11:57:28.329Z,98439.92
2022-10-05T12:07:43.262Z,98434.41
2022-10-05T12:12:51.000Z,98434.41
2022-10-05T12:17:55.923Z,98429.75
2022-10-05T12:23:00.488Z,98429.75
2022-10-05T12:28:04.936Z,98415.89
2022-10-05T12:38:17.510Z,98396.44
2022-10-05T12:43:24.113Z,98399.55
2022-10-05T12:48:33.383Z,98399.55
2022-10-05T12:53:40.530Z,98402.83
2022-10-05T13:08:57.710Z,98400.2
2022-10-05T13:14:06.139Z,98402.94
2022-10-05T13:19:15.203Z,98402.94
2022-10-05T13:34:31.215Z,98405.59
2022-10-05T13:44:44.206Z,98407.2
2022-10-05T13:49:50.656Z,98413.14
2022-10-05T13:54:56.300Z,98413.14
2022-10-05T13:59:59.511Z,98411.14
2022-10-05T14:05:02.402Z,98411.14
2022-10-05T14:15:20.222Z,98409.55
2022-10-05T14:20:23.656Z,98411.98
2022-10-05T14:25:25.462Z,98411.98
2022-10-05T14:30:28.163Z,98404.38
2022-10-05T14:35:31.443Z,98402.55
2022-10-05T14:40:34.190Z,98402.55
2022-10-05T14:45:36.067Z,98392.31
2022-10-05T15:00:56.199Z,98394.05
2022-10-05T15:05:59.850Z,98391.27
2022-10-05T15:11:04.570Z,98391.27
2022-10-05T15:26:25.428Z,98366.65
2022-10-05T15:31:30.260Z,98372.23
2022-10-05T15:36:34.902Z,98372.23
2022-10-05T15:46:51.615Z,98363
2022-10-05T15:51:57.363Z,98368
2022-10-05T15:57:02.515Z,98368
2022-10-05T16:02:07.145Z,98366.86
2022-10-05T16:07:12.133Z,98366.86
2022-10-05T16:12:18.001Z,98373.73
2022-10-05T16:22:31.542Z,98374.16
2022-10-05T16:32:46.427Z,98387.33
2022-10-05T16:42:59.685Z,98400.33
2022-10-05T16:48:05.627Z,98401.37
2022-10-05T16:53:12.158Z,98401.37
2022-10-05T16:58:16.771Z,98414.45
2022-10-05T17:03:23.057Z,98414.45
2022-10-05T17:13:39.136Z,98418.38
2022-10-05T17:24:00.546Z,98424.69
2022-10-05T17:34:12.861Z,98422.23
2022-10-05T17:39:15.564Z,98422.23
2022-10-05T17:44:18.597Z,98428.91
2022-10-05T17:49:25.266Z,98428.91
2022-10-05T17:54:29.232Z,98425.06
2022-10-05T18:04:38.901Z,98421.2
2022-10-05T18:14:53.920Z,98424.93
2022-10-05T18:25:09.795Z,98427.6
2022-10-05T18:30:17.427Z,98427.6
2022-10-05T18:35:21.791Z,98423.16
2022-10-05T18:40:27.922Z,98424.5
2022-10-05T18:50:41.283Z,98420.73
2022-10-05T18:55:45.970Z,98420.73
2022-10-05T19:06:12.162Z,98434.31
2022-10-05T19:11:17.816Z,98424.25
2022-10-05T19:16:28.621Z,98424.25
2022-10-05T19:31:47.779Z,98431.75
2022-10-05T19:36:55.642Z,98437.28
2022-10-05T19:47:09.294Z,98443.41
2022-10-05T19:52:12.918Z,98443.41
2022-10-05T19:57:16.745Z,98455.92
2022-10-05T20:07:24.026Z,98455.98
2022-10-05T20:17:31.067Z,98461.8
2022-10-05T20:22:33.660Z,98461.8
2022-10-05T20:27:36.873Z,98464.63
2022-10-05T20:32:38.539Z,98464.63
2022-10-05T20:37:40.256Z,98475.03
2022-10-05T20:42:41.861Z,98472.11
2022-10-05T20:47:43.456Z,98472.11
2022-10-05T20:52:45.077Z,98472.11
2022-10-05T20:57:46.667Z,98472.11
2022-10-05T21:02:48.276Z,98472.11
2022-10-05T21:07:49.884Z,98472.11
2022-10-05T21:12:51.625Z,98472.11
2022-10-05T21:17:53.286Z,98472.11
2022-10-05T21:22:55.009Z,98472.11
2022-10-05T21:27:56.939Z,98472.11
2022-10-05T21:32:58.847Z,98472.11
2022-10-05T21:38:00.485Z,98472.11
